sensor_id;sensor_type;location;lat;lon;timestamp;pressure;altitude;pressure_sealevel;temperature;humidity
16120;BME280;12670;53.502;10.252;2023-03-14T00:02:18;98469.38;;;11.30;100.00
16120;BME280;12670;53.502;10.252;2023-03-14T00:05:23;98469.00;;;11.35;100.00
16120;BME280;12670;53.502;10.252;2023-03-14T00:08:25;98488.66;;;11.43;100.00
16120;BME280;12670;53.502;10.252;2023-03-14T00:11:28;98514.50;;;11.30;100.00
16120;BME280;12670;53.502;10.252;2023-03-14T00:14:31;98524.63;;;11.25;100.00
16120;BME280;12670;53.502;10.252;2023-03-14T00:17:34;98527.28;;;11.14;100.00
16120;BME280;12670;53.502;10.252;2023-03-14T00:20:39;98524.53;;;11.15;100.00
16120;BME280;12670;53.502;10.252;2023-03-14T00:23:42;98515.00;;;11.13;100.00
16120;BME280;12670;53.502;10.252;2023-03-14T00:26:45;98508.69;;;11.25;100.00
16120;BME280;12670;53.502;10.252;2023-03-14T00:29:48;98506.53;;;11.08;100.00
16120;BME280;12670;53.502;10.252;2023-03-14T00:32:51;98489.91;;;11.17;100.00
16120;BME280;12670;53.502;10.252;2023-03-14T00:35:57;98484.09;;;11.34;100.00
16120;BME280;12670;53.502;10.252;2023-03-14T00:39:01;98484.81;;;11.25;100.00
16120;BME280;12670;53.502;10.252;2023-03-14T00:42:03;98491.09;;;11.24;100.00
16120;BME280;12670;53.502;10.252;2023-03-14T00:45:07;98481.47;;;11.12;100.00
16120;BME280;12670;53.502;10.252;2023-03-14T00:48:11;98456.19;;;10.97;100.00
16120;BME280;12670;53.502;10.252;2023-03-14T00:51:16;98459.28;;;10.90;100.00
16120;BME280;12670;53.502;10.252;2023-03-14T00:54:19;98454.09;;;11.00;100.00
16120;BME280;12670;53.502;10.252;2023-03-14T00:57:22;98436.97;;;11.15;100.00
16120;BME280;12670;53.502;10.252;2023-03-14T01:00:24;98436.16;;;11.04;100.00
16120;BME280;12670;53.502;10.252;2023-03-14T01:03:27;98445.50;;;11.19;100.00
16120;BME280;12670;53.502;10.252;2023-03-14T01:06:31;98457.09;;;11.07;100.00
16120;BME280;12670;53.502;10.252;2023-03-14T01:09:34;98469.66;;;11.05;100.00
16120;BME280;12670;53.502;10.252;2023-03-14T01:12:37;98482.09;;;10.93;100.00
16120;BME280;12670;53.502;10.252;2023-03-14T01:15:39;98497.66;;;11.09;100.00
16120;BME280;12670;53.502;10.252;2023-03-14T01:18:43;98493.41;;;11.17;100.00
16120;BME280;12670;53.502;10.252;2023-03-14T01:21:48;98490.38;;;11.22;100.00
16120;BME280;12670;53.502;10.252;2023-03-14T01:24:51;98481.81;;;11.07;100.00
16120;BME280;12670;53.502;10.252;2023-03-14T01:27:53;98480.28;;;11.05;100.00
16120;BME280;12670;53.502;10.252;2023-03-14T01:31:02;98457.94;;;11.07;100.00
16120;BME280;12670;53.502;10.252;2023-03-14T01:34:05;98453.63;;;11.06;100.00
16120;BME280;12670;53.502;10.252;2023-03-14T01:37:09;98438.78;;;11.15;100.00
16120;BME280;12670;53.502;10.252;2023-03-14T01:40:13;98430.06;;;11.13;100.00
16120;BME280;12670;53.502;10.252;2023-03-14T01:43:19;98428.78;;;10.96;100.00
16120;BME280;12670;53.502;10.252;2023-03-14T01:46:25;98425.63;;;11.02;100.00
16120;BME280;12670;53.502;10.252;2023-03-14T01:49:31;98433.00;;;11.10;100.00
16120;BME280;12670;53.502;10.252;2023-03-14T01:52:40;98432.03;;;11.11;100.00
16120;BME280;12670;53.502;10.252;2023-03-14T01:55:44;98421.63;;;11.19;100.00
16120;BME280;12670;53.502;10.252;2023-03-14T01:58:49;98396.91;;;11.18;100.00
16120;BME280;12670;53.502;10.252;2023-03-14T02:01:54;98400.88;;;11.24;100.00
16120;BME280;12670;53.502;10.252;2023-03-14T02:04:58;98403.53;;;11.13;100.00
16120;BME280;12670;53.502;10.252;2023-03-14T02:08:05;98404.84;;;11.18;100.00
16120;BME280;12670;53.502;10.252;2023-03-14T02:11:09;98411.25;;;11.27;100.00
16120;BME280;12670;53.502;10.252;2023-03-14T02:14:19;98389.53;;;11.22;100.00
16120;BME280;12670;53.502;10.252;2023-03-14T02:17:24;98380.63;;;11.12;100.00
16120;BME280;12670;53.502;10.252;2023-03-14T02:20:32;98342.97;;;11.18;100.00
16120;BME280;12670;53.502;10.252;2023-03-14T02:23:44;98344.16;;;11.25;100.00
16120;BME280;12670;53.502;10.252;2023-03-14T02:27:10;98343.66;;;11.31;100.00
16120;BME280;12670;53.502;10.252;2023-03-14T02:30:16;98349.13;;;11.18;100.00
16120;BME280;12670;53.502;10.252;2023-03-14T02:33:21;98350.25;;;11.16;100.00
16120;BME280;12670;53.502;10.252;2023-03-14T02:36:25;98342.97;;;11.18;100.00
16120;BME280;12670;53.502;10.252;2023-03-14T02:39:35;98350.47;;;11.13;100.00
16120;BME280;12670;53.502;10.252;2023-03-14T02:42:40;98355.75;;;11.24;100.00
16120;BME280;12670;53.502;10.252;2023-03-14T02:45:44;98361.78;;;11.26;100.00
16120;BME280;12670;53.502;10.252;2023-03-14T02:48:49;98374.84;;;11.18;100.00
16120;BME280;12670;53.502;10.252;2023-03-14T02:51:54;98370.03;;;11.12;100.00
16120;BME280;12670;53.502;10.252;2023-03-14T02:54:56;98375.09;;;11.15;100.00
16120;BME280;12670;53.502;10.252;2023-03-14T02:58:00;98369.22;;;10.89;100.00
16120;BME280;12670;53.502;10.252;2023-03-14T03:01:03;98365.53;;;10.80;100.00
16120;BME280;12670;53.502;10.252;2023-03-14T03:04:06;98365.03;;;10.86;100.00
16120;BME280;12670;53.502;10.252;2023-03-14T03:07:09;98377.22;;;10.78;100.00
16120;BME280;12670;53.502;10.252;2023-03-14T03:10:12;98364.09;;;10.76;100.00
16120;BME280;12670;53.502;10.252;2023-03-14T03:13:16;98373.97;;;10.85;100.00
16120;BME280;12670;53.502;10.252;2023-03-14T03:16:19;98362.38;;;10.86;100.00
16120;BME280;12670;53.502;10.252;2023-03-14T03:19:22;98370.81;;;10.91;100.00
16120;BME280;12670;53.502;10.252;2023-03-14T03:22:25;98366.25;;;10.82;100.00
16120;BME280;12670;53.502;10.252;2023-03-14T03:25:28;98359.97;;;10.83;100.00
16120;BME280;12670;53.502;10.252;2023-03-14T03:28:32;98352.47;;;10.88;100.00
16120;BME280;12670;53.502;10.252;2023-03-14T03:31:36;98352.59;;;10.98;100.00
16120;BME280;12670;53.502;10.252;2023-03-14T03:34:39;98352.97;;;10.82;100.00
16120;BME280;12670;53.502;10.252;2023-03-14T03:37:42;98335.09;;;10.95;100.00
16120;BME280;12670;53.502;10.252;2023-03-14T03:40:45;98339.19;;;11.00;100.00
16120;BME280;12670;53.502;10.252;2023-03-14T03:43:49;98334.88;;;11.19;100.00
16120;BME280;12670;53.502;10.252;2023-03-14T03:46:51;98330.69;;;11.17;100.00
16120;BME280;12670;53.502;10.252;2023-03-14T03:49:54;98322.78;;;11.06;100.00
16120;BME280;12670;53.502;10.252;2023-03-14T03:52:57;98320.69;;;11.20;100.00
16120;BME280;12670;53.502;10.252;2023-03-14T03:55:59;98327.09;;;11.07;100.00
16120;BME280;12670;53.502;10.252;2023-03-14T03:59:04;98315.00;;;11.14;100.00
16120;BME280;12670;53.502;10.252;2023-03-14T04:02:06;98313.25;;;11.03;100.00
16120;BME280;12670;53.502;10.252;2023-03-14T04:05:10;98308.69;;;10.94;100.00
16120;BME280;12670;53.502;10.252;2023-03-14T04:08:12;98309.31;;;10.98;100.00
16120;BME280;12670;53.502;10.252;2023-03-14T04:11:15;98298.72;;;10.86;100.00
16120;BME280;12670;53.502;10.252;2023-03-14T04:14:20;98303.06;;;10.87;100.00
16120;BME280;12670;53.502;10.252;2023-03-14T04:17:23;98296.91;;;10.87;100.00
16120;BME280;12670;53.502;10.252;2023-03-14T04:20:25;98295.31;;;10.95;100.00
16120;BME280;12670;53.502;10.252;2023-03-14T04:23:28;98290.22;;;11.04;100.00
16120;BME280;12670;53.502;10.252;2023-03-14T04:26:31;98280.38;;;10.94;100.00
16120;BME280;12670;53.502;10.252;2023-03-14T04:29:35;98277.16;;;10.91;100.00
16120;BME280;12670;53.502;10.252;2023-03-14T04:32:38;98272.41;;;10.94;100.00
16120;BME280;12670;53.502;10.252;2023-03-14T04:35:41;98271.75;;;11.02;100.00
16120;BME280;12670;53.502;10.252;2023-03-14T04:38:44;98271.19;;;10.99;100.00
16120;BME280;12670;53.502;10.252;2023-03-14T04:41:47;98272.41;;;10.94;100.00
16120;BME280;12670;53.502;10.252;2023-03-14T04:44:51;98275.31;;;10.91;100.00
16120;BME280;12670;53.502;10.252;2023-03-14T04:47:54;98263.19;;;11.10;100.00
16120;BME280;12670;53.502;10.252;2023-03-14T04:50:56;98261.63;;;11.07;100.00
16120;BME280;12670;53.502;10.252;2023-03-14T04:53:59;98251.66;;;11.00;100.00
16120;BME280;12670;53.502;10.252;2023-03-14T04:57:02;98249.28;;;10.97;100.00
16120;BME280;12670;53.502;10.252;2023-03-14T05:00:07;98262.72;;;11.05;100.00
16120;BME280;12670;53.502;10.252;2023-03-14T05:03:11;98255.16;;;11.00;100.00
16120;BME280;12670;53.502;10.252;2023-03-14T05:06:13;98254.50;;;11.08;100.00
16120;BME280;12670;53.502;10.252;2023-03-14T05:09:17;98251.59;;;11.11;100.00
16120;BME280;12670;53.502;10.252;2023-03-14T05:12:20;98260.66;;;11.08;100.00
16120;BME280;12670;53.502;10.252;2023-03-14T05:15:25;98246.53;;;11.08;100.00
16120;BME280;12670;53.502;10.252;2023-03-14T05:18:27;98240.34;;;10.98;100.00
16120;BME280;12670;53.502;10.252;2023-03-14T05:21:30;98240.53;;;11.06;100.00
16120;BME280;12670;53.502;10.252;2023-03-14T05:24:33;98239.41;;;10.87;100.00
16120;BME280;12670;53.502;10.252;2023-03-14T05:27:36;98244.63;;;10.78;100.00
16120;BME280;12670;53.502;10.252;2023-03-14T05:30:40;98234.81;;;10.89;100.00
16120;BME280;12670;53.502;10.252;2023-03-14T05:33:43;98240.66;;;10.72;100.00
16120;BME280;12670;53.502;10.252;2023-03-14T05:36:46;98238.09;;;10.82;100.00
16120;BME280;12670;53.502;10.252;2023-03-14T05:39:48;98234.88;;;10.67;100.00
16120;BME280;12670;53.502;10.252;2023-03-14T05:42:51;98228.38;;;10.71;100.00
16120;BME280;12670;53.502;10.252;2023-03-14T05:45:55;98228.25;;;10.73;100.00
16120;BME280;12670;53.502;10.252;2023-03-14T05:48:58;98236.63;;;10.57;100.00
16120;BME280;12670;53.502;10.252;2023-03-14T05:52:02;98236.63;;;10.57;100.00
16120;BME280;12670;53.502;10.252;2023-03-14T05:55:05;98236.50;;;10.58;100.00
16120;BME280;12670;53.502;10.252;2023-03-14T05:58:08;98226.50;;;10.62;100.00
16120;BME280;12670;53.502;10.252;2023-03-14T06:01:12;98229.97;;;10.62;100.00
16120;BME280;12670;53.502;10.252;2023-03-14T06:04:15;98228.50;;;10.70;100.00
16120;BME280;12670;53.502;10.252;2023-03-14T06:07:18;98225.03;;;10.69;100.00
16120;BME280;12670;53.502;10.252;2023-03-14T06:10:20;98224.75;;;10.72;100.00
16120;BME280;12670;53.502;10.252;2023-03-14T06:13:23;98231.50;;;10.76;100.00
16120;BME280;12670;53.502;10.252;2023-03-14T06:16:27;98231.75;;;10.73;100.00
16120;BME280;12670;53.502;10.252;2023-03-14T06:19:30;98228.25;;;10.73;100.00
16120;BME280;12670;53.502;10.252;2023-03-14T06:22:33;98229.34;;;10.70;100.00
16120;BME280;12670;53.502;10.252;2023-03-14T06:25:36;98230.06;;;10.72;100.00
16120;BME280;12670;53.502;10.252;2023-03-14T06:28:39;98237.81;;;10.64;100.00
16120;BME280;12670;53.502;10.252;2023-03-14T06:31:43;98230.50;;;10.56;100.00
16120;BME280;12670;53.502;10.252;2023-03-14T06:34:46;98233.13;;;10.56;100.00
16120;BME280;12670;53.502;10.252;2023-03-14T06:37:48;98240.59;;;10.62;100.00
16120;BME280;12670;53.502;10.252;2023-03-14T06:40:51;98244.81;;;10.54;100.00
16120;BME280;12670;53.502;10.252;2023-03-14T06:43:54;98251.09;;;10.53;100.00
16120;BME280;12670;53.502;10.252;2023-03-14T06:46:58;98254.44;;;10.55;100.00
16120;BME280;12670;53.502;10.252;2023-03-14T06:50:01;98258.06;;;10.54;100.00
16120;BME280;12670;53.502;10.252;2023-03-14T06:53:04;98266.25;;;10.62;100.00
16120;BME280;12670;53.502;10.252;2023-03-14T06:56:08;98271.16;;;10.66;100.00
16120;BME280;12670;53.502;10.252;2023-03-14T06:59:10;98270.78;;;10.71;100.00
16120;BME280;12670;53.502;10.252;2023-03-14T07:02:15;98266.69;;;10.67;100.00
16120;BME280;12670;53.502;10.252;2023-03-14T07:05:18;98274.06;;;10.75;100.00
16120;BME280;12670;53.502;10.252;2023-03-14T07:08:20;98283.94;;;10.73;100.00
16120;BME280;12670;53.502;10.252;2023-03-14T07:11:23;98278.63;;;10.73;100.00
16120;BME280;12670;53.502;10.252;2023-03-14T07:14:26;98280.91;;;10.77;100.00
16120;BME280;12670;53.502;10.252;2023-03-14T07:17:30;98285.97;;;10.80;100.00
16120;BME280;12670;53.502;10.252;2023-03-14T07:20:33;98298.34;;;10.91;100.00
16120;BME280;12670;53.502;10.252;2023-03-14T07:23:36;98297.56;;;10.68;100.00
16120;BME280;12670;53.502;10.252;2023-03-14T07:26:38;98290.88;;;10.41;100.00
16120;BME280;12670;53.502;10.252;2023-03-14T07:29:41;98294.44;;;10.63;100.00
16120;BME280;12670;53.502;10.252;2023-03-14T07:32:45;98292.28;;;10.68;100.00
16120;BME280;12670;53.502;10.252;2023-03-14T07:35:49;98295.41;;;10.73;100.00
16120;BME280;12670;53.502;10.252;2023-03-14T07:38:52;98303.75;;;10.89;100.00
16120;BME280;12670;53.502;10.252;2023-03-14T07:41:55;98301.53;;;10.74;100.00
16120;BME280;12670;53.502;10.252;2023-03-14T07:45:00;98315.84;;;10.82;100.00
16120;BME280;12670;53.502;10.252;2023-03-14T07:48:06;98315.00;;;10.82;100.00
16120;BME280;12670;53.502;10.252;2023-03-14T07:51:08;98316.31;;;10.87;100.00
16120;BME280;12670;53.502;10.252;2023-03-14T07:54:11;98307.63;;;10.97;100.00
16120;BME280;12670;53.502;10.252;2023-03-14T07:57:14;98319.25;;;11.16;100.00
16120;BME280;12670;53.502;10.252;2023-03-14T08:00:18;98318.06;;;11.09;100.00
16120;BME280;12670;53.502;10.252;2023-03-14T08:03:23;98307.31;;;11.11;100.00
16120;BME280;12670;53.502;10.252;2023-03-14T08:06:26;98303.28;;;10.84;100.00
16120;BME280;12670;53.502;10.252;2023-03-14T08:09:28;98316.44;;;10.86;100.00
16120;BME280;12670;53.502;10.252;2023-03-14T08:12:31;98330.91;;;10.82;100.00
16120;BME280;12670;53.502;10.252;2023-03-14T08:15:34;98321.16;;;10.82;100.00
16120;BME280;12670;53.502;10.252;2023-03-14T08:18:39;98322.16;;;10.70;100.00
16120;BME280;12670;53.502;10.252;2023-03-14T08:21:42;98313.75;;;10.54;100.00
16120;BME280;12670;53.502;10.252;2023-03-14T08:24:45;98304.44;;;10.59;100.00
16120;BME280;12670;53.502;10.252;2023-03-14T08:27:48;98305.41;;;10.70;100.00
16120;BME280;12670;53.502;10.252;2023-03-14T08:30:50;98308.09;;;10.90;100.00
16120;BME280;12670;53.502;10.252;2023-03-14T08:33:55;98301.75;;;11.14;100.00
16120;BME280;12670;53.502;10.252;2023-03-14T08:36:57;98317.28;;;11.18;100.00
16120;BME280;12670;53.502;10.252;2023-03-14T08:40:00;98302.47;;;11.16;100.00
16120;BME280;12670;53.502;10.252;2023-03-14T08:43:06;98312.22;;;10.83;100.00
16120;BME280;12670;53.502;10.252;2023-03-14T08:46:09;98315.66;;;11.06;100.00
16120;BME280;12670;53.502;10.252;2023-03-14T08:49:13;98317.28;;;11.18;100.00
16120;BME280;12670;53.502;10.252;2023-03-14T08:52:16;98302.09;;;10.88;100.00
16120;BME280;12670;53.502;10.252;2023-03-14T08:55:19;98297.41;;;11.13;100.00
16120;BME280;12670;53.502;10.252;2023-03-14T08:58:23;98296.91;;;11.19;100.00
16120;BME280;12670;53.502;10.252;2023-03-14T09:01:26;98291.91;;;11.26;100.00
16120;BME280;12670;53.502;10.252;2023-03-14T09:04:30;98293.31;;;11.20;100.00
16120;BME280;12670;53.502;10.252;2023-03-14T09:07:33;98290.47;;;11.33;100.00
16120;BME280;12670;53.502;10.252;2023-03-14T09:10:36;98299.13;;;11.35;99.05
16120;BME280;12670;53.502;10.252;2023-03-14T09:13:40;98300.25;;;11.32;98.92
16120;BME280;12670;53.502;10.252;2023-03-14T09:16:43;98297.72;;;11.52;99.68
16120;BME280;12670;53.502;10.252;2023-03-14T09:19:47;98294.66;;;11.35;98.41
16120;BME280;12670;53.502;10.252;2023-03-14T09:22:50;98293.44;;;11.39;98.11
16120;BME280;12670;53.502;10.252;2023-03-14T09:25:54;98294.78;;;11.55;97.33
16120;BME280;12670;53.502;10.252;2023-03-14T09:28:57;98294.25;;;11.61;97.40
16120;BME280;12670;53.502;10.252;2023-03-14T09:32:00;98285.13;;;11.54;97.12
16120;BME280;12670;53.502;10.252;2023-03-14T09:35:05;98289.38;;;11.56;96.86
16120;BME280;12670;53.502;10.252;2023-03-14T09:38:08;98288.69;;;11.43;97.30
16120;BME280;12670;53.502;10.252;2023-03-14T09:41:14;98294.78;;;11.55;97.73
16120;BME280;12670;53.502;10.252;2023-03-14T09:44:21;98294.34;;;11.50;97.42
16120;BME280;12670;53.502;10.252;2023-03-14T09:47:27;98299.16;;;11.56;96.44
16120;BME280;12670;53.502;10.252;2023-03-14T09:50:37;98304.97;;;11.50;95.76
16120;BME280;12670;53.502;10.252;2023-03-14T09:53:42;98297.34;;;11.56;96.92
16120;BME280;12670;53.502;10.252;2023-03-14T09:56:45;98303.63;;;11.55;96.93
16120;BME280;12670;53.502;10.252;2023-03-14T09:59:49;98299.66;;;11.50;96.86
16120;BME280;12670;53.502;10.252;2023-03-14T10:02:54;98309.50;;;11.59;97.78
16120;BME280;12670;53.502;10.252;2023-03-14T10:06:00;98302.09;;;11.41;97.63
16120;BME280;12670;53.502;10.252;2023-03-14T10:09:03;98306.38;;;11.54;99.10
16120;BME280;12670;53.502;10.252;2023-03-14T10:12:08;98332.94;;;11.54;100.00
16120;BME280;12670;53.502;10.252;2023-03-14T10:15:13;98355.91;;;11.11;100.00
16120;BME280;12670;53.502;10.252;2023-03-14T10:18:19;98375.31;;;10.24;100.00
16120;BME280;12670;53.502;10.252;2023-03-14T10:21:27;98411.69;;;9.75;100.00
16120;BME280;12670;53.502;10.252;2023-03-14T10:24:32;98426.47;;;9.19;100.00
16120;BME280;12670;53.502;10.252;2023-03-14T10:27:35;98436.41;;;8.91;100.00
16120;BME280;12670;53.502;10.252;2023-03-14T10:30:40;98445.09;;;8.80;100.00
16120;BME280;12670;53.502;10.252;2023-03-14T10:33:58;98440.97;;;9.13;100.00
16120;BME280;12670;53.502;10.252;2023-03-14T10:37:07;98456.56;;;9.05;100.00
16120;BME280;12670;53.502;10.252;2023-03-14T10:40:19;98459.44;;;8.89;100.00
16120;BME280;12670;53.502;10.252;2023-03-14T10:43:25;98485.00;;;9.01;100.00
16120;BME280;12670;53.502;10.252;2023-03-14T10:46:31;98491.91;;;9.04;100.00
16120;BME280;12670;53.502;10.252;2023-03-14T10:49:36;98509.25;;;8.95;100.00
16120;BME280;12670;53.502;10.252;2023-03-14T10:52:46;98523.25;;;8.59;100.00
16120;BME280;12670;53.502;10.252;2023-03-14T10:56:06;98550.47;;;8.34;100.00
16120;BME280;12670;53.502;10.252;2023-03-14T10:59:13;98567.56;;;8.28;100.00
16120;BME280;12670;53.502;10.252;2023-03-14T11:02:42;98577.22;;;8.02;100.00
16120;BME280;12670;53.502;10.252;2023-03-14T11:05:49;98593.91;;;8.03;100.00
16120;BME280;12670;53.502;10.252;2023-03-14T11:08:57;98614.34;;;7.87;100.00
16120;BME280;12670;53.502;10.252;2023-03-14T11:12:19;98642.88;;;7.53;100.00
16120;BME280;12670;53.502;10.252;2023-03-14T11:15:30;98652.88;;;7.05;100.00
16120;BME280;12670;53.502;10.252;2023-03-14T11:19:00;98663.03;;;7.26;100.00
16120;BME280;12670;53.502;10.252;2023-03-14T11:22:13;98679.22;;;7.05;100.00
16120;BME280;12670;53.502;10.252;2023-03-14T11:25:22;98694.63;;;6.83;100.00
16120;BME280;12670;53.502;10.252;2023-03-14T11:28:31;98708.88;;;6.94;100.00
16120;BME280;12670;53.502;10.252;2023-03-14T11:31:40;98693.75;;;7.12;100.00
16120;BME280;12670;53.502;10.252;2023-03-14T11:34:50;98710.97;;;6.74;100.00
16120;BME280;12670;53.502;10.252;2023-03-14T11:37:56;98742.16;;;6.35;100.00
16120;BME280;12670;53.502;10.252;2023-03-14T11:41:10;98768.91;;;6.12;100.00
16120;BME280;12670;53.502;10.252;2023-03-14T11:44:18;98791.41;;;6.49;100.00
16120;BME280;12670;53.502;10.252;2023-03-14T11:47:25;98786.41;;;6.45;100.00
16120;BME280;12670;53.502;10.252;2023-03-14T11:50:30;98812.81;;;6.11;100.00
16120;BME280;12670;53.502;10.252;2023-03-14T11:53:43;98814.28;;;6.17;100.00
16120;BME280;12670;53.502;10.252;2023-03-14T11:56:55;98826.75;;;6.13;100.00
16120;BME280;12670;53.502;10.252;2023-03-14T12:00:03;98821.91;;;6.37;100.00
16120;BME280;12670;53.502;10.252;2023-03-14T12:03:13;98826.34;;;6.37;100.00
16120;BME280;12670;53.502;10.252;2023-03-14T12:06:22;98833.66;;;6.16;100.00
16120;BME280;12670;53.502;10.252;2023-03-14T12:09:26;98838.72;;;6.19;100.00
16120;BME280;12670;53.502;10.252;2023-03-14T12:12:31;98842.03;;;6.38;100.00
16120;BME280;12670;53.502;10.252;2023-03-14T12:15:36;98854.84;;;6.13;100.00
16120;BME280;12670;53.502;10.252;2023-03-14T12:18:41;98865.47;;;6.27;100.00
16120;BME280;12670;53.502;10.252;2023-03-14T12:21:49;98879.28;;;6.48;100.00
16120;BME280;12670;53.502;10.252;2023-03-14T12:24:56;98897.47;;;6.53;99.24
16120;BME280;12670;53.502;10.252;2023-03-14T12:28:16;98890.88;;;6.12;96.33
16120;BME280;12670;53.502;10.252;2023-03-14T12:31:38;98901.50;;;6.27;94.83
16120;BME280;12670;53.502;10.252;2023-03-14T12:34:43;98910.94;;;5.98;92.35
16120;BME280;12670;53.502;10.252;2023-03-14T12:37:48;98909.50;;;6.25;94.64
16120;BME280;12670;53.502;10.252;2023-03-14T12:40:59;98917.00;;;6.49;94.15
16120;BME280;12670;53.502;10.252;2023-03-14T12:44:40;98930.94;;;6.51;94.07
16120;BME280;12670;53.502;10.252;2023-03-14T12:48:01;98931.47;;;6.89;94.98
16120;BME280;12670;53.502;10.252;2023-03-14T12:51:13;98941.69;;;6.95;92.50
16120;BME280;12670;53.502;10.252;2023-03-14T12:54:27;98955.47;;;7.00;93.11
16120;BME280;12670;53.502;10.252;2023-03-14T12:57:39;98972.63;;;6.76;91.31
16120;BME280;12670;53.502;10.252;2023-03-14T13:00:51;98978.41;;;6.82;92.03
16120;BME280;12670;53.502;10.252;2023-03-14T13:03:57;98994.81;;;6.72;91.38
16120;BME280;12670;53.502;10.252;2023-03-14T13:07:11;98992.16;;;6.72;90.99
16120;BME280;12670;53.502;10.252;2023-03-14T13:10:21;99011.50;;;6.88;91.66
16120;BME280;12670;53.502;10.252;2023-03-14T13:13:26;99003.44;;;7.07;92.74
16120;BME280;12670;53.502;10.252;2023-03-14T13:16:31;99004.91;;;6.63;91.59
16120;BME280;12670;53.502;10.252;2023-03-14T13:19:38;99019.28;;;6.74;89.39
16120;BME280;12670;53.502;10.252;2023-03-14T13:22:46;99027.47;;;6.85;91.11
16120;BME280;12670;53.502;10.252;2023-03-14T13:25:49;99028.31;;;6.70;91.96
16120;BME280;12670;53.502;10.252;2023-03-14T13:28:53;99037.06;;;6.86;90.48
16120;BME280;12670;53.502;10.252;2023-03-14T13:31:59;99043.31;;;6.67;89.76
16120;BME280;12670;53.502;10.252;2023-03-14T13:35:02;99055.09;;;6.78;91.10
16120;BME280;12670;53.502;10.252;2023-03-14T13:38:15;99069.03;;;6.80;92.13
16120;BME280;12670;53.502;10.252;2023-03-14T13:41:18;99083.28;;;6.93;91.33
16120;BME280;12670;53.502;10.252;2023-03-14T13:44:25;99081.50;;;6.43;87.29
16120;BME280;12670;53.502;10.252;2023-03-14T13:47:30;99083.16;;;6.61;87.29
16120;BME280;12670;53.502;10.252;2023-03-14T13:50:33;99087.81;;;6.56;83.42
16120;BME280;12670;53.502;10.252;2023-03-14T13:53:43;99094.44;;;6.48;74.12
16120;BME280;12670;53.502;10.252;2023-03-14T13:56:46;99095.56;;;6.77;72.31
16120;BME280;12670;53.502;10.252;2023-03-14T14:00:00;99102.34;;;7.14;69.92
16120;BME280;12670;53.502;10.252;2023-03-14T14:03:10;99106.91;;;7.28;68.11
16120;BME280;12670;53.502;10.252;2023-03-14T14:06:23;99118.03;;;7.17;62.64
16120;BME280;12670;53.502;10.252;2023-03-14T14:09:29;99154.81;;;7.36;59.92
16120;BME280;12670;53.502;10.252;2023-03-14T14:12:35;99144.41;;;7.17;56.09
16120;BME280;12670;53.502;10.252;2023-03-14T14:15:42;99162.50;;;7.07;57.30
16120;BME280;12670;53.502;10.252;2023-03-14T14:18:46;99165.59;;;7.15;58.38
16120;BME280;12670;53.502;10.252;2023-03-14T14:21:50;99158.19;;;6.89;59.42
16120;BME280;12670;53.502;10.252;2023-03-14T14:24:53;99167.34;;;6.82;62.01
16120;BME280;12670;53.502;10.252;2023-03-14T14:27:56;99180.53;;;6.64;62.30
16120;BME280;12670;53.502;10.252;2023-03-14T14:31:05;99198.75;;;6.69;60.79
16120;BME280;12670;53.502;10.252;2023-03-14T14:34:19;99213.00;;;6.65;60.03
16120;BME280;12670;53.502;10.252;2023-03-14T14:37:24;99220.81;;;6.66;60.12
16120;BME280;12670;53.502;10.252;2023-03-14T14:40:29;99229.34;;;6.72;59.04
16120;BME280;12670;53.502;10.252;2023-03-14T14:43:36;99246.41;;;6.64;58.73
16120;BME280;12670;53.502;10.252;2023-03-14T14:46:42;99258.97;;;6.77;58.92
16120;BME280;12670;53.502;10.252;2023-03-14T14:49:47;99261.94;;;7.05;59.71
16120;BME280;12670;53.502;10.252;2023-03-14T14:52:49;99265.00;;;6.96;58.19
16120;BME280;12670;53.502;10.252;2023-03-14T14:55:59;99281.22;;;6.35;57.26
16120;BME280;12670;53.502;10.252;2023-03-14T14:59:17;99287.88;;;6.42;58.65
16120;BME280;12670;53.502;10.252;2023-03-14T15:02:29;99307.38;;;6.74;58.05
16120;BME280;12670;53.502;10.252;2023-03-14T15:05:34;99300.19;;;6.78;56.32
16120;BME280;12670;53.502;10.252;2023-03-14T15:08:38;99304.38;;;6.64;54.94
16120;BME280;12670;53.502;10.252;2023-03-14T15:11:41;99319.50;;;6.42;53.11
16120;BME280;12670;53.502;10.252;2023-03-14T15:14:44;99332.66;;;6.42;53.12
16120;BME280;12670;53.502;10.252;2023-03-14T15:17:46;99335.09;;;6.47;53.59
16120;BME280;12670;53.502;10.252;2023-03-14T15:20:51;99340.19;;;6.50;54.84
16120;BME280;12670;53.502;10.252;2023-03-14T15:23:54;99342.66;;;6.72;54.63
16120;BME280;12670;53.502;10.252;2023-03-14T15:26:57;99350.28;;;6.78;55.96
16120;BME280;12670;53.502;10.252;2023-03-14T15:29:59;99359.63;;;6.66;54.55
16120;BME280;12670;53.502;10.252;2023-03-14T15:33:02;99364.81;;;6.67;56.01
16120;BME280;12670;53.502;10.252;2023-03-14T15:36:23;99389.47;;;6.66;56.79
16120;BME280;12670;53.502;10.252;2023-03-14T15:39:26;99405.00;;;6.35;58.31
16120;BME280;12670;53.502;10.252;2023-03-14T15:42:28;99412.41;;;6.46;57.83
16120;BME280;12670;53.502;10.252;2023-03-14T15:45:31;99423.00;;;6.25;57.21
16120;BME280;12670;53.502;10.252;2023-03-14T15:48:34;99429.63;;;6.34;58.74
16120;BME280;12670;53.502;10.252;2023-03-14T15:51:38;99440.84;;;6.19;58.08
16120;BME280;12670;53.502;10.252;2023-03-14T15:54:41;99457.09;;;6.28;57.39
16120;BME280;12670;53.502;10.252;2023-03-14T15:57:44;99468.88;;;6.20;56.22
16120;BME280;12670;53.502;10.252;2023-03-14T16:00:47;99472.47;;;5.98;55.29
16120;BME280;12670;53.502;10.252;2023-03-14T16:03:49;99489.72;;;6.05;55.35